KOXC/OXC METAR and TAF weather

Enter ICAO airport designator
Station Type Date Time Source
KOXC METAR 2019/05/26 22:51 UTC NOAA

KOXC 262251Z 27010G16KT 240V300 10SM FEW065 26/16 A2985 RMK AO2 SLP115 T02560156


Station Type Date Time Source
KOXC Decoded METAR 2019/05/26 22:51 UTC NOAA

Oxford, Waterbury-Oxford Airport, CT, United States (KOXC) 41-29N 073-08W
May 26, 2019 - 06:51 PM EDT / 2019.05.26 2251 UTC
Wind: from the W (270 degrees) at 12 MPH (10 KT) gusting to 18 MPH (16 KT) (direction variable):0
Visibility: 10 mile(s):0
Sky conditions: mostly clear
Temperature: 78.1 F (25.6 C)
Dew Point: 60.1 F (15.6 C)
Relative Humidity: 53%
Pressure (altimeter): 29.85 in. Hg (1010 hPa)
ob: KOXC 262251Z 27010G16KT 240V300 10SM FEW065 26/16 A2985 RMK AO2 SLP115 T02560156
cycle: 23

Station Type Date Time Source
KOXC TAF UTC NOAA

Error!

Example: see airport list